sensor_id;sensor_type;location;lat;lon;timestamp;pressure;altitude;pressure_sealevel;temperature;humidity
27643;BME280;15053;48.618;10.024;2023-03-22T00:01:23;94097.03;;;11.33;69.68
27643;BME280;15053;48.618;10.024;2023-03-22T00:03:50;94099.94;;;11.32;69.75
27643;BME280;15053;48.618;10.024;2023-03-22T00:06:17;94096.38;;;11.27;69.46
27643;BME280;15053;48.618;10.024;2023-03-22T00:08:47;94093.75;;;11.27;69.12
27643;BME280;15053;48.618;10.024;2023-03-22T00:11:16;94093.56;;;11.24;69.19
27643;BME280;15053;48.618;10.024;2023-03-22T00:13:43;94080.06;;;11.22;69.52
27643;BME280;15053;48.618;10.024;2023-03-22T00:16:13;94083.72;;;11.21;68.93
27643;BME280;15053;48.618;10.024;2023-03-22T00:18:40;94087.41;;;11.20;69.10
27643;BME280;15053;48.618;10.024;2023-03-22T00:21:11;94090.31;;;11.18;69.27
27643;BME280;15053;48.618;10.024;2023-03-22T00:23:39;94088.59;;;11.14;69.65
27643;BME280;15053;48.618;10.024;2023-03-22T00:26:07;94089.16;;;11.11;69.23
27643;BME280;15053;48.618;10.024;2023-03-22T00:28:35;94082.72;;;11.08;69.67
27643;BME280;15053;48.618;10.024;2023-03-22T00:31:03;94087.47;;;11.06;69.66
27643;BME280;15053;48.618;10.024;2023-03-22T00:33:32;94080.41;;;11.07;68.93
27643;BME280;15053;48.618;10.024;2023-03-22T00:36:07;94077.81;;;11.07;69.15
27643;BME280;15053;48.618;10.024;2023-03-22T00:38:34;94078.56;;;11.07;69.12
27643;BME280;15053;48.618;10.024;2023-03-22T00:41:17;94085.63;;;11.07;69.05
27643;BME280;15053;48.618;10.024;2023-03-22T00:43:45;94076.38;;;11.01;69.05
27643;BME280;15053;48.618;10.024;2023-03-22T00:46:13;94071.44;;;10.99;69.36
27643;BME280;15053;48.618;10.024;2023-03-22T00:48:42;94070.97;;;10.97;69.16
27643;BME280;15053;48.618;10.024;2023-03-22T00:51:09;94069.72;;;10.95;69.28
27643;BME280;15053;48.618;10.024;2023-03-22T00:53:36;94068.75;;;10.91;69.47
27643;BME280;15053;48.618;10.024;2023-03-22T00:56:04;94083.44;;;10.87;69.61
27643;BME280;15053;48.618;10.024;2023-03-22T00:58:40;94071.09;;;10.79;69.86
27643;BME280;15053;48.618;10.024;2023-03-22T01:01:06;94069.97;;;10.71;69.78
27643;BME280;15053;48.618;10.024;2023-03-22T01:03:33;94069.34;;;10.74;70.08
27643;BME280;15053;48.618;10.024;2023-03-22T01:06:00;94066.00;;;10.74;70.11
27643;BME280;15053;48.618;10.024;2023-03-22T01:08:27;94075.34;;;10.75;70.28
27643;BME280;15053;48.618;10.024;2023-03-22T01:10:59;94069.06;;;10.76;70.25
27643;BME280;15053;48.618;10.024;2023-03-22T01:13:26;94071.69;;;10.76;69.63
27643;BME280;15053;48.618;10.024;2023-03-22T01:15:53;94058.94;;;10.74;70.09
27643;BME280;15053;48.618;10.024;2023-03-22T01:18:19;94036.59;;;10.59;70.08
27643;BME280;15053;48.618;10.024;2023-03-22T01:20:46;94061.53;;;10.74;69.88
27643;BME280;15053;48.618;10.024;2023-03-22T01:23:12;94051.72;;;10.71;69.61
27643;BME280;15053;48.618;10.024;2023-03-22T01:25:39;94052.00;;;10.70;69.80
27643;BME280;15053;48.618;10.024;2023-03-22T01:28:06;94049.41;;;10.70;69.87
27643;BME280;15053;48.618;10.024;2023-03-22T01:30:34;94052.69;;;10.61;69.59
27643;BME280;15053;48.618;10.024;2023-03-22T01:33:01;94049.31;;;10.61;69.73
27643;BME280;15053;48.618;10.024;2023-03-22T01:35:29;94051.81;;;10.52;70.21
27643;BME280;15053;48.618;10.024;2023-03-22T01:37:58;94050.69;;;10.45;70.36
27643;BME280;15053;48.618;10.024;2023-03-22T01:40:26;94044.31;;;10.37;70.70
27643;BME280;15053;48.618;10.024;2023-03-22T01:42:53;94043.34;;;10.33;70.96
27643;BME280;15053;48.618;10.024;2023-03-22T01:47:52;94042.88;;;10.31;71.03
27643;BME280;15053;48.618;10.024;2023-03-22T01:50:20;94042.41;;;10.29;70.65
27643;BME280;15053;48.618;10.024;2023-03-22T01:52:49;94036.72;;;10.27;71.14
27643;BME280;15053;48.618;10.024;2023-03-22T01:55:24;94031.59;;;10.22;71.41
27643;BME280;15053;48.618;10.024;2023-03-22T01:58:04;94030.91;;;10.17;71.41
27643;BME280;15053;48.618;10.024;2023-03-22T02:00:39;94032.31;;;10.09;71.47
27643;BME280;15053;48.618;10.024;2023-03-22T02:03:31;94020.78;;;10.01;71.99
27643;BME280;15053;48.618;10.024;2023-03-22T02:06:03;94026.84;;;9.97;71.80
27643;BME280;15053;48.618;10.024;2023-03-22T02:08:31;94031.38;;;9.91;71.99
27643;BME280;15053;48.618;10.024;2023-03-22T02:11:00;94030.09;;;9.89;71.98
27643;BME280;15053;48.618;10.024;2023-03-22T02:20:06;94034.44;;;9.80;72.13
27643;BME280;15053;48.618;10.024;2023-03-22T02:22:56;94032.41;;;9.77;72.03
27643;BME280;15053;48.618;10.024;2023-03-22T02:25:36;94029.88;;;9.72;72.31
27643;BME280;15053;48.618;10.024;2023-03-22T02:28:27;94029.00;;;9.63;72.20
27643;BME280;15053;48.618;10.024;2023-03-22T02:31:05;94023.41;;;9.56;72.48
27643;BME280;15053;48.618;10.024;2023-03-22T02:39:31;94022.03;;;9.44;72.66
27643;BME280;15053;48.618;10.024;2023-03-22T02:42:13;94012.19;;;9.41;72.63
27643;BME280;15053;48.618;10.024;2023-03-22T02:44:57;94009.09;;;9.39;72.58
27643;BME280;15053;48.618;10.024;2023-03-22T02:47:34;94004.47;;;9.36;72.77
27643;BME280;15053;48.618;10.024;2023-03-22T02:53:09;93997.75;;;9.35;72.82
27643;BME280;15053;48.618;10.024;2023-03-22T02:55:47;94005.53;;;9.35;73.08
27643;BME280;15053;48.618;10.024;2023-03-22T03:00:51;93994.25;;;9.26;72.90
27643;BME280;15053;48.618;10.024;2023-03-22T03:03:20;94006.75;;;9.24;73.27
27643;BME280;15053;48.618;10.024;2023-03-22T03:05:53;94003.66;;;9.22;73.17
27643;BME280;15053;48.618;10.024;2023-03-22T03:08:22;93999.31;;;9.18;73.20
27643;BME280;15053;48.618;10.024;2023-03-22T03:10:51;94007.88;;;9.18;72.87
27643;BME280;15053;48.618;10.024;2023-03-22T03:13:18;94008.94;;;9.17;73.25
27643;BME280;15053;48.618;10.024;2023-03-22T03:15:50;94005.28;;;9.18;73.12
27643;BME280;15053;48.618;10.024;2023-03-22T03:18:26;94000.56;;;9.20;73.22
27643;BME280;15053;48.618;10.024;2023-03-22T03:21:25;94001.34;;;9.21;73.56
27643;BME280;15053;48.618;10.024;2023-03-22T03:24:32;94003.75;;;9.17;73.00
27643;BME280;15053;48.618;10.024;2023-03-22T03:27:07;94013.78;;;9.05;72.77
27643;BME280;15053;48.618;10.024;2023-03-22T03:29:59;94016.81;;;8.94;72.93
27643;BME280;15053;48.618;10.024;2023-03-22T03:32:48;94020.03;;;8.85;72.92
27643;BME280;15053;48.618;10.024;2023-03-22T03:35:23;94018.09;;;8.77;72.92
27643;BME280;15053;48.618;10.024;2023-03-22T03:37:56;94022.88;;;8.70;73.47
27643;BME280;15053;48.618;10.024;2023-03-22T03:40:32;94016.03;;;8.56;72.81
27643;BME280;15053;48.618;10.024;2023-03-22T03:43:02;94021.63;;;8.44;72.93
27643;BME280;15053;48.618;10.024;2023-03-22T03:45:29;94014.22;;;8.38;73.10
27643;BME280;15053;48.618;10.024;2023-03-22T03:47:59;94018.16;;;8.30;73.65
27643;BME280;15053;48.618;10.024;2023-03-22T03:50:26;94020.03;;;8.24;73.71
27643;BME280;15053;48.618;10.024;2023-03-22T03:52:54;94020.56;;;8.21;74.20
27643;BME280;15053;48.618;10.024;2023-03-22T03:55:22;94019.31;;;8.19;74.44
27643;BME280;15053;48.618;10.024;2023-03-22T03:57:49;94014.41;;;8.17;74.36
27643;BME280;15053;48.618;10.024;2023-03-22T04:00:16;94021.16;;;8.18;75.79
27643;BME280;15053;48.618;10.024;2023-03-22T04:03:04;94011.31;;;8.15;75.41
27643;BME280;15053;48.618;10.024;2023-03-22T04:05:44;94013.41;;;8.13;75.77
27643;BME280;15053;48.618;10.024;2023-03-22T04:08:11;94025.81;;;8.16;76.46
27643;BME280;15053;48.618;10.024;2023-03-22T04:10:39;94029.97;;;8.17;76.21
27643;BME280;15053;48.618;10.024;2023-03-22T04:13:06;94025.03;;;8.16;77.17
27643;BME280;15053;48.618;10.024;2023-03-22T04:15:32;94027.38;;;8.17;76.16
27643;BME280;15053;48.618;10.024;2023-03-22T04:18:02;94026.91;;;8.10;76.25
27643;BME280;15053;48.618;10.024;2023-03-22T04:20:30;94025.94;;;8.06;76.76
27643;BME280;15053;48.618;10.024;2023-03-22T04:22:56;94021.78;;;8.05;76.44
27643;BME280;15053;48.618;10.024;2023-03-22T04:25:23;94024.38;;;8.05;77.18
27643;BME280;15053;48.618;10.024;2023-03-22T04:28:00;94026.00;;;8.01;77.30
27643;BME280;15053;48.618;10.024;2023-03-22T04:30:31;94024.44;;;8.00;77.01
27643;BME280;15053;48.618;10.024;2023-03-22T04:33:20;94024.50;;;7.95;77.07
27643;BME280;15053;48.618;10.024;2023-03-22T04:36:08;94027.69;;;7.87;77.18
27643;BME280;15053;48.618;10.024;2023-03-22T04:38:48;94027.25;;;7.80;77.25
27643;BME280;15053;48.618;10.024;2023-03-22T04:41:19;94027.81;;;7.77;78.07
27643;BME280;15053;48.618;10.024;2023-03-22T04:43:49;94017.44;;;7.77;77.68
27643;BME280;15053;48.618;10.024;2023-03-22T04:46:16;94021.06;;;7.76;77.98
27643;BME280;15053;48.618;10.024;2023-03-22T04:48:49;94023.97;;;7.75;78.33
27643;BME280;15053;48.618;10.024;2023-03-22T04:51:16;94022.88;;;7.76;78.59
27643;BME280;15053;48.618;10.024;2023-03-22T04:53:58;94016.66;;;7.77;77.55
27643;BME280;15053;48.618;10.024;2023-03-22T04:56:25;94014.84;;;7.77;78.19
27643;BME280;15053;48.618;10.024;2023-03-22T04:58:52;94013.00;;;7.78;78.30
27643;BME280;15053;48.618;10.024;2023-03-22T05:01:19;94012.75;;;7.79;78.20
27643;BME280;15053;48.618;10.024;2023-03-22T05:03:53;94013.72;;;7.83;78.86
27643;BME280;15053;48.618;10.024;2023-03-22T05:06:21;94015.28;;;7.84;78.61
27643;BME280;15053;48.618;10.024;2023-03-22T05:09:04;94017.88;;;7.84;78.61
27643;BME280;15053;48.618;10.024;2023-03-22T05:11:31;94012.97;;;7.83;77.93
27643;BME280;15053;48.618;10.024;2023-03-22T05:14:11;94014.34;;;7.75;77.77
27643;BME280;15053;48.618;10.024;2023-03-22T05:16:39;94023.97;;;7.75;78.19
27643;BME280;15053;48.618;10.024;2023-03-22T05:19:07;94020.84;;;7.72;77.75
27643;BME280;15053;48.618;10.024;2023-03-22T05:21:42;94025.78;;;7.74;78.48
27643;BME280;15053;48.618;10.024;2023-03-22T05:24:10;94021.13;;;7.71;78.19
27643;BME280;15053;48.618;10.024;2023-03-22T05:26:38;94015.22;;;7.65;77.69
27643;BME280;15053;48.618;10.024;2023-03-22T05:29:09;94019.63;;;7.65;78.02
27643;BME280;15053;48.618;10.024;2023-03-22T05:31:59;94018.13;;;7.59;77.85
27643;BME280;15053;48.618;10.024;2023-03-22T05:34:26;94021.00;;;7.57;78.48
27643;BME280;15053;48.618;10.024;2023-03-22T05:37:08;94023.84;;;7.56;78.17
27643;BME280;15053;48.618;10.024;2023-03-22T05:39:46;94024.88;;;7.60;77.92
27643;BME280;15053;48.618;10.024;2023-03-22T05:42:13;94016.03;;;7.61;77.90
27643;BME280;15053;48.618;10.024;2023-03-22T05:44:39;94020.66;;;7.64;78.00
27643;BME280;15053;48.618;10.024;2023-03-22T05:47:09;94019.56;;;7.70;78.71
27643;BME280;15053;48.618;10.024;2023-03-22T05:49:44;94014.84;;;7.77;78.98
27643;BME280;15053;48.618;10.024;2023-03-22T05:52:10;94013.47;;;7.85;78.76
27643;BME280;15053;48.618;10.024;2023-03-22T05:54:55;94004.84;;;7.89;77.84
27643;BME280;15053;48.618;10.024;2023-03-22T05:57:22;94009.78;;;7.91;78.10
27643;BME280;15053;48.618;10.024;2023-03-22T05:59:48;94007.38;;;7.99;78.27
27643;BME280;15053;48.618;10.024;2023-03-22T06:02:22;94009.13;;;8.04;78.12
27643;BME280;15053;48.618;10.024;2023-03-22T06:04:49;94012.44;;;8.09;78.59
27643;BME280;15053;48.618;10.024;2023-03-22T06:07:16;94011.09;;;8.12;77.98
27643;BME280;15053;48.618;10.024;2023-03-22T06:09:48;94005.63;;;8.13;77.98
27643;BME280;15053;48.618;10.024;2023-03-22T06:12:21;94009.00;;;8.14;78.03
27643;BME280;15053;48.618;10.024;2023-03-22T06:15:07;94007.97;;;8.15;78.21
27643;BME280;15053;48.618;10.024;2023-03-22T06:17:34;94004.28;;;8.16;78.34
27643;BME280;15053;48.618;10.024;2023-03-22T06:20:04;94000.13;;;8.20;78.39
27643;BME280;15053;48.618;10.024;2023-03-22T06:22:40;93999.81;;;8.21;77.93
27643;BME280;15053;48.618;10.024;2023-03-22T06:25:07;94008.03;;;8.34;78.27
27643;BME280;15053;48.618;10.024;2023-03-22T06:27:39;94011.53;;;8.43;78.24
27643;BME280;15053;48.618;10.024;2023-03-22T06:30:06;94003.13;;;8.51;78.12
27643;BME280;15053;48.618;10.024;2023-03-22T06:32:44;94001.44;;;8.60;78.25
27643;BME280;15053;48.618;10.024;2023-03-22T06:35:12;93998.72;;;8.70;78.48
27643;BME280;15053;48.618;10.024;2023-03-22T06:37:39;94004.06;;;8.78;77.96
27643;BME280;15053;48.618;10.024;2023-03-22T06:40:07;94003.13;;;8.88;78.46
27643;BME280;15053;48.618;10.024;2023-03-22T06:42:34;93998.38;;;8.95;77.62
27643;BME280;15053;48.618;10.024;2023-03-22T06:45:06;94003.63;;;9.09;77.58
27643;BME280;15053;48.618;10.024;2023-03-22T06:47:36;93995.66;;;9.19;77.26
27643;BME280;15053;48.618;10.024;2023-03-22T06:50:03;93996.75;;;9.31;77.08
27643;BME280;15053;48.618;10.024;2023-03-22T06:52:49;93990.06;;;9.44;76.58
27643;BME280;15053;48.618;10.024;2023-03-22T06:55:16;93992.47;;;9.54;76.21
27643;BME280;15053;48.618;10.024;2023-03-22T06:57:42;93990.47;;;9.65;75.88
27643;BME280;15053;48.618;10.024;2023-03-22T07:00:09;93990.50;;;9.78;75.18
27643;BME280;15053;48.618;10.024;2023-03-22T07:02:36;93984.81;;;9.90;74.90
27643;BME280;15053;48.618;10.024;2023-03-22T07:05:26;93986.06;;;10.06;74.51
27643;BME280;15053;48.618;10.024;2023-03-22T07:07:53;93986.09;;;10.20;74.38
27643;BME280;15053;48.618;10.024;2023-03-22T07:10:20;93994.41;;;10.35;73.46
27643;BME280;15053;48.618;10.024;2023-03-22T07:12:47;93982.88;;;10.50;73.28
27643;BME280;15053;48.618;10.024;2023-03-22T07:15:15;93985.44;;;10.63;72.26
27643;BME280;15053;48.618;10.024;2023-03-22T07:18:03;93992.75;;;10.75;71.93
27643;BME280;15053;48.618;10.024;2023-03-22T07:20:32;93996.50;;;10.83;71.44
27643;BME280;15053;48.618;10.024;2023-03-22T07:23:03;93995.78;;;10.91;71.48
27643;BME280;15053;48.618;10.024;2023-03-22T07:25:34;94003.53;;;10.96;70.72
27643;BME280;15053;48.618;10.024;2023-03-22T07:28:15;93998.66;;;11.03;70.21
27643;BME280;15053;48.618;10.024;2023-03-22T07:30:42;94003.94;;;11.11;69.66
27643;BME280;15053;48.618;10.024;2023-03-22T07:33:09;94003.50;;;11.18;69.66
27643;BME280;15053;48.618;10.024;2023-03-22T07:35:38;93990.66;;;11.21;69.03
27643;BME280;15053;48.618;10.024;2023-03-22T07:38:05;93983.56;;;11.13;69.13
27643;BME280;15053;48.618;10.024;2023-03-22T07:40:32;94006.91;;;11.41;68.95
27643;BME280;15053;48.618;10.024;2023-03-22T07:42:58;94005.41;;;11.48;68.74
27643;BME280;15053;48.618;10.024;2023-03-22T07:45:56;94008.84;;;11.57;68.34
27643;BME280;15053;48.618;10.024;2023-03-22T07:48:42;94010.94;;;11.69;67.51
27643;BME280;15053;48.618;10.024;2023-03-22T07:51:26;94004.53;;;11.75;67.45
27643;BME280;15053;48.618;10.024;2023-03-22T07:53:53;94002.84;;;11.79;66.50
27643;BME280;15053;48.618;10.024;2023-03-22T07:56:19;94007.66;;;11.86;65.31
27643;BME280;15053;48.618;10.024;2023-03-22T07:58:46;94012.13;;;11.94;65.20
27643;BME280;15053;48.618;10.024;2023-03-22T08:01:13;94005.72;;;12.00;63.91
27643;BME280;15053;48.618;10.024;2023-03-22T08:04:02;94007.44;;;12.13;62.67
27643;BME280;15053;48.618;10.024;2023-03-22T08:06:47;93999.06;;;12.24;62.31
27643;BME280;15053;48.618;10.024;2023-03-22T08:09:15;94002.16;;;12.35;61.37
27643;BME280;15053;48.618;10.024;2023-03-22T08:11:41;93999.25;;;12.45;60.61
27643;BME280;15053;48.618;10.024;2023-03-22T08:14:08;94006.19;;;12.58;60.81
27643;BME280;15053;48.618;10.024;2023-03-22T08:16:37;94005.91;;;12.68;60.42
27643;BME280;15053;48.618;10.024;2023-03-22T08:19:04;94006.69;;;12.77;59.67
27643;BME280;15053;48.618;10.024;2023-03-22T08:21:34;94001.94;;;12.88;59.89
27643;BME280;15053;48.618;10.024;2023-03-22T08:24:02;94009.47;;;12.98;59.38
27643;BME280;15053;48.618;10.024;2023-03-22T08:26:38;94007.16;;;13.05;58.92
27643;BME280;15053;48.618;10.024;2023-03-22T08:29:13;94004.13;;;13.12;58.38
27643;BME280;15053;48.618;10.024;2023-03-22T08:31:44;94000.91;;;13.23;58.13
27643;BME280;15053;48.618;10.024;2023-03-22T08:34:12;94013.81;;;13.37;57.48
27643;BME280;15053;48.618;10.024;2023-03-22T08:36:38;94005.19;;;13.36;57.62
27643;BME280;15053;48.618;10.024;2023-03-22T08:39:06;94004.72;;;13.43;57.20
27643;BME280;15053;48.618;10.024;2023-03-22T08:41:44;94011.19;;;13.54;56.97
27643;BME280;15053;48.618;10.024;2023-03-22T08:44:11;94001.00;;;13.61;56.91
27643;BME280;15053;48.618;10.024;2023-03-22T08:46:39;94012.81;;;13.76;56.19
27643;BME280;15053;48.618;10.024;2023-03-22T08:49:05;94017.56;;;13.82;56.85
27643;BME280;15053;48.618;10.024;2023-03-22T08:51:36;94019.13;;;13.83;55.78
27643;BME280;15053;48.618;10.024;2023-03-22T08:54:12;94011.09;;;13.88;55.82
27643;BME280;15053;48.618;10.024;2023-03-22T08:57:17;94006.44;;;14.02;55.98
27643;BME280;15053;48.618;10.024;2023-03-22T08:59:57;94005.03;;;14.05;55.30
27643;BME280;15053;48.618;10.024;2023-03-22T09:02:32;93995.50;;;14.00;54.97
27643;BME280;15053;48.618;10.024;2023-03-22T09:04:59;94010.84;;;14.10;55.33
27643;BME280;15053;48.618;10.024;2023-03-22T09:07:26;93998.69;;;14.14;55.23
27643;BME280;15053;48.618;10.024;2023-03-22T09:10:08;93999.41;;;14.24;54.38
27643;BME280;15053;48.618;10.024;2023-03-22T09:12:38;93996.94;;;14.27;53.98
27643;BME280;15053;48.618;10.024;2023-03-22T09:15:05;93998.75;;;14.35;54.38
27643;BME280;15053;48.618;10.024;2023-03-22T09:17:34;94015.66;;;14.46;54.27
27643;BME280;15053;48.618;10.024;2023-03-22T09:20:02;93994.69;;;14.46;53.69
27643;BME280;15053;48.618;10.024;2023-03-22T09:22:40;93993.28;;;14.49;54.16
27643;BME280;15053;48.618;10.024;2023-03-22T09:25:08;94011.84;;;14.64;53.86
27643;BME280;15053;48.618;10.024;2023-03-22T09:27:40;94001.66;;;14.71;53.58
27643;BME280;15053;48.618;10.024;2023-03-22T09:30:07;94003.75;;;14.78;54.51
27643;BME280;15053;48.618;10.024;2023-03-22T09:32:34;93995.84;;;14.87;53.31
27643;BME280;15053;48.618;10.024;2023-03-22T09:35:03;93990.28;;;14.88;53.54
27643;BME280;15053;48.618;10.024;2023-03-22T09:37:37;93988.91;;;15.03;53.03
27643;BME280;15053;48.618;10.024;2023-03-22T09:40:06;93982.09;;;15.10;53.08
27643;BME280;15053;48.618;10.024;2023-03-22T09:42:45;93975.38;;;15.21;53.32
27643;BME280;15053;48.618;10.024;2023-03-22T09:45:17;93972.13;;;15.36;52.63
27643;BME280;15053;48.618;10.024;2023-03-22T09:47:48;93963.41;;;15.45;52.00
27643;BME280;15053;48.618;10.024;2023-03-22T09:50:22;93963.50;;;15.57;52.19
27643;BME280;15053;48.618;10.024;2023-03-22T09:52:49;93959.56;;;15.63;51.17
27643;BME280;15053;48.618;10.024;2023-03-22T09:55:25;93949.72;;;15.60;50.81
27643;BME280;15053;48.618;10.024;2023-03-22T09:58:06;93954.97;;;15.60;50.59
27643;BME280;15053;48.618;10.024;2023-03-22T10:00:47;93947.31;;;15.67;50.84
27643;BME280;15053;48.618;10.024;2023-03-22T10:06:09;93958.06;;;15.86;50.26
27643;BME280;15053;48.618;10.024;2023-03-22T10:08:49;93954.78;;;15.89;49.29
27643;BME280;15053;48.618;10.024;2023-03-22T10:14:32;93950.66;;;16.00;48.69
27643;BME280;15053;48.618;10.024;2023-03-22T10:17:05;93942.53;;;16.05;48.83
27643;BME280;15053;48.618;10.024;2023-03-22T10:19:43;93948.34;;;16.23;49.45
27643;BME280;15053;48.618;10.024;2023-03-22T10:22:14;93941.88;;;16.32;48.45
27643;BME280;15053;48.618;10.024;2023-03-22T10:24:44;93933.13;;;16.40;48.26
27643;BME280;15053;48.618;10.024;2023-03-22T10:27:17;93938.25;;;16.49;47.86
27643;BME280;15053;48.618;10.024;2023-03-22T10:29:49;93938.16;;;16.58;47.62
27643;BME280;15053;48.618;10.024;2023-03-22T10:32:19;93926.97;;;16.73;46.94
27643;BME280;15053;48.618;10.024;2023-03-22T10:34:47;93947.84;;;16.81;46.51
27643;BME280;15053;48.618;10.024;2023-03-22T10:37:24;93940.75;;;16.82;45.65
27643;BME280;15053;48.618;10.024;2023-03-22T10:39:54;93934.16;;;16.76;44.53
27643;BME280;15053;48.618;10.024;2023-03-22T10:42:25;93940.75;;;16.82;44.51
27643;BME280;15053;48.618;10.024;2023-03-22T10:44:53;93920.13;;;16.84;44.34
27643;BME280;15053;48.618;10.024;2023-03-22T10:47:35;93920.88;;;16.84;44.00
27643;BME280;15053;48.618;10.024;2023-03-22T10:50:21;93915.91;;;16.95;44.85
27643;BME280;15053;48.618;10.024;2023-03-22T10:53:02;93913.16;;;17.03;44.25
27643;BME280;15053;48.618;10.024;2023-03-22T10:55:29;93916.75;;;17.11;44.38
27643;BME280;15053;48.618;10.024;2023-03-22T10:58:14;93910.13;;;17.17;43.11
27643;BME280;15053;48.618;10.024;2023-03-22T11:00:46;93921.28;;;17.26;42.64
27643;BME280;15053;48.618;10.024;2023-03-22T11:06:11;93911.97;;;17.44;42.42
27643;BME280;15053;48.618;10.024;2023-03-22T11:08:45;93902.59;;;17.59;42.75
27643;BME280;15053;48.618;10.024;2023-03-22T11:11:15;93892.06;;;17.75;42.20
27643;BME280;15053;48.618;10.024;2023-03-22T11:13:48;93894.97;;;17.85;42.64
27643;BME280;15053;48.618;10.024;2023-03-22T11:16:16;93888.34;;;18.07;41.45
27643;BME280;15053;48.618;10.024;2023-03-22T11:18:43;93875.91;;;18.23;41.07
27643;BME280;15053;48.618;10.024;2023-03-22T11:21:11;93887.16;;;18.39;40.61
27643;BME280;15053;48.618;10.024;2023-03-22T11:23:47;93886.66;;;18.49;40.44
27643;BME280;15053;48.618;10.024;2023-03-22T11:26:24;93876.31;;;18.60;40.82
27643;BME280;15053;48.618;10.024;2023-03-22T11:29:01;93882.81;;;18.81;40.47
27643;BME280;15053;48.618;10.024;2023-03-22T11:34:17;93871.69;;;18.53;41.82
27643;BME280;15053;48.618;10.024;2023-03-22T11:36:45;93867.34;;;18.29;41.48
27643;BME280;15053;48.618;10.024;2023-03-22T11:39:17;93876.25;;;18.41;42.10
27643;BME280;15053;48.618;10.024;2023-03-22T11:41:44;93876.09;;;18.49;40.81
27643;BME280;15053;48.618;10.024;2023-03-22T11:44:14;93863.41;;;18.55;40.48
27643;BME280;15053;48.618;10.024;2023-03-22T11:46:51;93865.84;;;18.82;41.04
27643;BME280;15053;48.618;10.024;2023-03-22T11:49:23;93863.63;;;19.04;40.39
27643;BME280;15053;48.618;10.024;2023-03-22T11:51:53;93855.84;;;19.11;39.80
27643;BME280;15053;48.618;10.024;2023-03-22T11:54:33;93853.88;;;19.27;39.40
27643;BME280;15053;48.618;10.024;2023-03-22T11:57:09;93861.25;;;19.60;40.02
27643;BME280;15053;48.618;10.024;2023-03-22T11:59:48;93857.28;;;19.69;38.60
27643;BME280;15053;48.618;10.024;2023-03-22T12:02:34;93853.63;;;19.77;38.68
27643;BME280;15053;48.618;10.024;2023-03-22T12:05:07;93843.38;;;19.98;38.19
27643;BME280;15053;48.618;10.024;2023-03-22T12:07:37;93836.38;;;20.10;37.28
27643;BME280;15053;48.618;10.024;2023-03-22T12:10:20;93836.81;;;20.15;36.51
27643;BME280;15053;48.618;10.024;2023-03-22T12:12:54;93842.69;;;20.28;36.27
27643;BME280;15053;48.618;10.024;2023-03-22T12:15:30;93839.00;;;20.32;37.14
27643;BME280;15053;48.618;10.024;2023-03-22T12:18:11;93837.84;;;20.33;36.39
27643;BME280;15053;48.618;10.024;2023-03-22T12:20:50;93830.34;;;20.35;36.35
27643;BME280;15053;48.618;10.024;2023-03-22T12:23:21;93832.22;;;20.35;36.71
27643;BME280;15053;48.618;10.024;2023-03-22T12:25:59;93828.84;;;20.38;36.38
27643;BME280;15053;48.618;10.024;2023-03-22T12:28:31;93834.69;;;20.50;36.99
27643;BME280;15053;48.618;10.024;2023-03-22T12:31:00;93820.88;;;20.64;36.30
27643;BME280;15053;48.618;10.024;2023-03-22T12:33:44;93817.19;;;20.72;37.77
27643;BME280;15053;48.618;10.024;2023-03-22T12:36:18;93803.44;;;20.63;38.49
27643;BME280;15053;48.618;10.024;2023-03-22T12:38:52;93814.81;;;20.64;38.40
27643;BME280;15053;48.618;10.024;2023-03-22T12:41:35;93813.56;;;20.54;38.07
27643;BME280;15053;48.618;10.024;2023-03-22T12:46:37;93818.66;;;20.14;38.86
27643;BME280;15053;48.618;10.024;2023-03-22T12:49:24;93806.69;;;19.93;39.12
27643;BME280;15053;48.618;10.024;2023-03-22T12:51:53;93811.50;;;19.88;38.65
27643;BME280;15053;48.618;10.024;2023-03-22T12:54:23;93813.44;;;19.91;38.59
27643;BME280;15053;48.618;10.024;2023-03-22T12:56:51;93809.06;;;20.02;39.03
27643;BME280;15053;48.618;10.024;2023-03-22T12:59:22;93816.28;;;20.05;38.15
27643;BME280;15053;48.618;10.024;2023-03-22T13:04:56;93805.50;;;19.91;38.07
27643;BME280;15053;48.618;10.024;2023-03-22T13:07:37;93803.69;;;19.72;37.55
27643;BME280;15053;48.618;10.024;2023-03-22T13:15:57;93803.13;;;20.35;38.64
27643;BME280;15053;48.618;10.024;2023-03-22T13:21:27;93798.00;;;21.15;36.84
27643;BME280;15053;48.618;10.024;2023-03-22T13:26:50;93789.72;;;21.61;35.65
27643;BME280;15053;48.618;10.024;2023-03-22T13:31:55;93776.88;;;21.70;35.37
27643;BME280;15053;48.618;10.024;2023-03-22T13:34:36;93774.16;;;21.56;34.98
27643;BME280;15053;48.618;10.024;2023-03-22T13:37:08;93780.19;;;21.53;34.35
27643;BME280;15053;48.618;10.024;2023-03-22T13:39:36;93766.44;;;21.40;35.50
27643;BME280;15053;48.618;10.024;2023-03-22T13:42:17;93771.75;;;21.44;34.35
27643;BME280;15053;48.618;10.024;2023-03-22T13:44:51;93765.34;;;21.45;33.99
27643;BME280;15053;48.618;10.024;2023-03-22T13:47:44;93768.72;;;21.45;33.64
27643;BME280;15053;48.618;10.024;2023-03-22T13:50:16;93764.00;;;21.21;33.71
27643;BME280;15053;48.618;10.024;2023-03-22T13:53:00;93769.16;;;21.07;34.50
27643;BME280;15053;48.618;10.024;2023-03-22T13:58:50;93759.75;;;21.57;33.51
27643;BME280;15053;48.618;10.024;2023-03-22T14:01:27;93751.13;;;21.70;32.81
27643;BME280;15053;48.618;10.024;2023-03-22T14:03:57;93751.16;;;21.74;33.07
27643;BME280;15053;48.618;10.024;2023-03-22T14:06:30;93744.16;;;21.48;33.38
27643;BME280;15053;48.618;10.024;2023-03-22T14:09:38;93749.97;;;21.21;33.70
27643;BME280;15053;48.618;10.024;2023-03-22T14:12:30;93751.81;;;21.09;33.38
27643;BME280;15053;48.618;10.024;2023-03-22T14:15:00;93744.50;;;21.03;32.91
27643;BME280;15053;48.618;10.024;2023-03-22T14:17:38;93742.84;;;20.88;32.16